Time;durP1;ratioP1;P1;durP2;ratioP2;P2;SDS_P1;SDS_P2;PMS_P1;PMS_P2;Temp;Humidity;BMP_temperature;BMP_pressure;BME280_temperature;BME280_humidity;BME280_pressure;Samples;Min_cycle;Max_cycle;Signal;HPM_P1;HPM_P2
2022/08/14 00:02:25;;;;;;;8.93;2.10;;;24.00;91.00;;;;;;4995636;28;20224;-85
2022/08/14 00:04:51;;;;;;;2.05;1.85;;;23.90;91.10;;;;;;4996679;28;20635;-84
2022/08/14 00:07:17;;;;;;;2.67;2.42;;;23.80;91.20;;;;;;4993761;28;20173;-84
2022/08/14 00:09:43;;;;;;;6.80;2.70;;;24.00;91.00;;;;;;4993600;28;20208;-85
2022/08/14 00:12:09;;;;;;;8.02;2.38;;;24.10;90.70;;;;;;4994729;28;20287;-84
2022/08/14 00:14:36;;;;;;;2.38;2.22;;;24.10;90.70;;;;;;4993356;28;20193;-84
2022/08/14 00:17:02;;;;;;;4.93;2.42;;;24.10;90.70;;;;;;4993092;28;20256;-84
2022/08/14 00:19:28;;;;;;;6.65;2.20;;;24.10;90.70;;;;;;4993389;28;20634;-84
2022/08/14 00:21:53;;;;;;;8.20;2.28;;;24.00;90.90;;;;;;4994271;28;20220;-84
2022/08/14 00:24:20;;;;;;;2.72;2.50;;;24.00;90.80;;;;;;4994281;28;20192;-84
2022/08/14 00:26:46;;;;;;;9.85;2.58;;;23.90;90.80;;;;;;4992603;28;20537;-85
2022/08/14 00:29:12;;;;;;;2.55;2.35;;;24.00;90.80;;;;;;4993690;28;20177;-84
2022/08/14 00:31:37;;;;;;;3.63;2.40;;;24.00;90.60;;;;;;4992873;28;20220;-84
2022/08/14 00:34:03;;;;;;;1.90;1.80;;;24.00;90.80;;;;;;4993878;28;20189;-85
2022/08/14 00:36:29;;;;;;;3.30;2.40;;;24.00;90.70;;;;;;4993391;28;20272;-85
2022/08/14 00:38:55;;;;;;;2.83;2.20;;;24.00;90.70;;;;;;4993089;28;20169;-85
2022/08/14 00:41:20;;;;;;;9.23;2.05;;;24.00;90.60;;;;;;4994254;28;20189;-86
2022/08/14 00:43:46;;;;;;;2.60;2.40;;;24.00;90.80;;;;;;4992958;28;20169;-85
2022/08/14 00:46:13;;;;;;;10.52;2.35;;;24.00;90.80;;;;;;4992871;28;20171;-85
2022/08/14 00:48:39;;;;;;;6.20;2.72;;;23.90;91.10;;;;;;4992836;28;20292;-84
2022/08/14 00:51:09;;;;;;;2.42;1.92;;;23.80;91.10;;;;;;4992452;28;20213;-85
2022/08/14 00:53:38;;;;;;;6.32;2.03;;;23.90;90.90;;;;;;4992755;28;20166;-85
2022/08/14 00:56:04;;;;;;;2.40;2.20;;;23.90;90.90;;;;;;4992821;28;20201;-85
2022/08/14 00:58:30;;;;;;;3.38;2.30;;;23.80;91.10;;;;;;4992429;28;20175;-84
2022/08/14 01:01:05;;;;;;;3.05;1.90;;;23.70;91.20;;;;;;4993906;28;20193;-84
2022/08/14 01:03:32;;;;;;;5.78;2.38;;;23.60;91.40;;;;;;4993966;28;20208;-84
2022/08/14 01:05:58;;;;;;;3.78;2.05;;;23.60;91.40;;;;;;4992488;28;20176;-85
2022/08/14 01:08:27;;;;;;;2.15;1.80;;;23.80;91.20;;;;;;4992586;28;20168;-85
2022/08/14 01:10:55;;;;;;;4.03;2.08;;;23.80;91.40;;;;;;4992286;28;20223;-84
2022/08/14 01:13:27;;;;;;;3.05;2.28;;;23.70;91.40;;;;;;4992330;28;20593;-85
2022/08/14 01:15:56;;;;;;;4.05;2.40;;;23.70;91.60;;;;;;4992265;28;20276;-86
2022/08/14 01:21:11;;;;;;;4.10;2.15;;;23.60;91.90;;;;;;4993278;28;20220;-84
2022/08/14 01:23:46;;;;;;;8.82;2.45;;;23.50;92.10;;;;;;4992186;28;20195;-84
2022/08/14 01:26:14;;;;;;;9.18;2.30;;;23.50;92.00;;;;;;4993427;28;20165;-85
2022/08/14 01:28:41;;;;;;;2.33;2.20;;;23.60;91.90;;;;;;4992055;28;20648;-85
2022/08/14 01:31:11;;;;;;;2.55;2.20;;;23.60;91.90;;;;;;4992158;28;20212;-85
2022/08/14 01:33:39;;;;;;;1.95;1.85;;;23.60;91.90;;;;;;4992693;28;20176;-85
2022/08/14 01:36:05;;;;;;;2.92;2.67;;;23.60;91.90;;;;;;4993908;28;20164;-84
2022/08/14 01:38:33;;;;;;;4.25;2.10;;;23.60;91.80;;;;;;5001542;28;20165;-84
2022/08/14 01:41:05;;;;;;;5.30;1.95;;;23.60;91.80;;;;;;5005328;28;20176;-85
2022/08/14 01:43:37;;;;;;;6.32;2.72;;;23.60;91.90;;;;;;5005751;28;20259;-85
2022/08/14 01:46:05;;;;;;;2.42;1.90;;;23.50;92.00;;;;;;5006063;28;20224;-85
2022/08/14 01:48:31;;;;;;;9.93;2.10;;;23.40;92.10;;;;;;5005201;28;20176;-85
2022/08/14 01:51:00;;;;;;;14.45;2.50;;;23.30;92.20;;;;;;5004062;28;20629;-84
2022/08/14 01:53:27;;;;;;;4.20;2.30;;;23.30;92.50;;;;;;4992176;28;20172;-84
2022/08/14 01:55:58;;;;;;;2.40;2.20;;;23.30;92.50;;;;;;4991778;28;20253;-84
2022/08/14 01:58:26;;;;;;;5.00;2.42;;;23.20;92.60;;;;;;5005727;28;20169;-85
2022/08/14 02:00:53;;;;;;;7.05;2.10;;;23.20;92.80;;;;;;4995751;28;20212;-85
2022/08/14 02:03:19;;;;;;;4.68;2.13;;;23.20;92.80;;;;;;4991872;28;20169;-85
2022/08/14 02:05:44;;;;;;;7.63;1.98;;;23.20;92.80;;;;;;4991643;28;20175;-84
2022/08/14 02:08:10;;;;;;;2.33;2.05;;;23.20;92.80;;;;;;4992185;28;20264;-85
2022/08/14 02:10:40;;;;;;;5.55;2.60;;;23.20;92.90;;;;;;4991892;28;20283;-85
2022/08/14 02:13:07;;;;;;;2.75;2.50;;;23.20;93.00;;;;;;4992796;28;20228;-84
2022/08/14 02:15:33;;;;;;;2.70;2.35;;;23.10;93.20;;;;;;4991874;28;20169;-84
2022/08/14 02:18:03;;;;;;;6.93;2.70;;;23.10;93.20;;;;;;4993172;28;20254;-84
2022/08/14 02:20:32;;;;;;;2.58;2.35;;;23.10;93.20;;;;;;4991841;28;20720;-85
2022/08/14 02:23:02;;;;;;;3.78;2.40;;;22.90;93.60;;;;;;4992689;28;20271;-84
2022/08/14 02:25:29;;;;;;;2.53;2.33;;;22.80;93.80;;;;;;4991359;28;20609;-84
2022/08/14 02:27:55;;;;;;;4.72;2.10;;;22.90;93.70;;;;;;4992588;28;20210;-84
2022/08/14 02:30:24;;;;;;;2.25;2.15;;;22.90;93.80;;;;;;4992632;28;20236;-84
2022/08/14 02:32:51;;;;;;;2.70;2.50;;;22.90;93.90;;;;;;4991720;28;20165;-85
2022/08/14 02:35:17;;;;;;;3.05;2.17;;;23.00;94.10;;;;;;4992673;28;20204;-83
2022/08/14 02:37:44;;;;;;;11.73;2.47;;;22.90;94.10;;;;;;4991388;28;20423;-84
2022/08/14 02:40:11;;;;;;;2.70;2.50;;;23.00;94.20;;;;;;4991369;28;20726;-83
2022/08/14 02:42:38;;;;;;;5.82;2.20;;;22.90;94.30;;;;;;4991662;28;20261;-83
2022/08/14 02:45:05;;;;;;;2.15;2.03;;;22.90;94.50;;;;;;4991385;28;20272;-84
2022/08/14 02:47:31;;;;;;;2.50;2.30;;;22.70;94.70;;;;;;4991395;28;20165;-84
2022/08/14 02:49:57;;;;;;;2.25;2.03;;;22.60;94.80;;;;;;4995444;28;20240;-84
2022/08/14 02:52:24;;;;;;;9.57;2.25;;;22.40;95.20;;;;;;4994989;28;20169;-84
2022/08/14 02:54:51;;;;;;;3.60;2.58;;;22.40;95.00;;;;;;4996160;28;20192;-84
2022/08/14 02:57:17;;;;;;;2.47;2.28;;;22.40;95.00;;;;;;4995020;28;20192;-84
2022/08/14 02:59:43;;;;;;;9.70;2.65;;;22.50;94.90;;;;;;4995935;28;20169;-87
2022/08/14 03:02:09;;;;;;;2.42;2.22;;;22.40;95.00;;;;;;4994787;28;20181;-84
2022/08/14 03:04:34;;;;;;;2.47;2.28;;;22.40;95.00;;;;;;4994584;28;20665;-84
2022/08/14 03:07:00;;;;;;;2.45;2.25;;;22.40;95.10;;;;;;4994686;28;20169;-83
2022/08/14 03:09:26;;;;;;;2.13;1.92;;;22.40;95.30;;;;;;4995869;28;20180;-84
2022/08/14 03:11:52;;;;;;;2.20;2.00;;;22.20;95.60;;;;;;4995643;28;20233;-84
2022/08/14 03:14:19;;;;;;;2.42;2.22;;;22.10;95.60;;;;;;4995893;28;20164;-84
2022/08/14 03:16:49;;;;;;;5.53;2.22;;;22.10;95.70;;;;;;4994410;28;20172;-84
2022/08/14 03:19:14;;;;;;;4.10;3.28;;;22.10;95.80;;;;;;4994560;28;20555;-84
2022/08/14 03:21:40;;;;;;;3.42;3.03;;;22.10;96.00;;;;;;4995576;28;20193;-84
2022/08/14 03:24:11;;;;;;;2.85;2.47;;;22.20;96.00;;;;;;4994246;28;20212;-84
2022/08/14 03:26:45;;;;;;;8.05;2.80;;;22.30;96.00;;;;;;4993963;28;20180;-84
2022/08/14 03:29:19;;;;;;;3.20;2.55;;;22.20;96.20;;;;;;4993678;28;20213;-83
2022/08/14 03:31:48;;;;;;;4.68;2.45;;;22.00;96.50;;;;;;4994242;28;20312;-83
2022/08/14 03:34:14;;;;;;;6.20;2.88;;;22.00;96.50;;;;;;4993996;28;20200;-84
2022/08/14 03:36:41;;;;;;;14.98;2.63;;;22.10;96.50;;;;;;4995005;28;20733;-84
2022/08/14 03:39:08;;;;;;;2.95;2.75;;;22.10;96.50;;;;;;4993709;28;20169;-84
2022/08/14 03:41:35;;;;;;;5.35;2.38;;;22.10;96.70;;;;;;4995377;28;20189;-84
2022/08/14 03:44:03;;;;;;;2.20;2.05;;;22.10;97.00;;;;;;4993938;28;20256;-84
2022/08/14 03:46:32;;;;;;;5.93;3.13;;;22.00;97.10;;;;;;4993846;28;20165;-84
2022/08/14 03:49:00;;;;;;;2.67;2.47;;;22.10;96.90;;;;;;4994869;28;20177;-84
2022/08/14 03:51:27;;;;;;;2.47;2.25;;;21.90;97.30;;;;;;4993297;28;20689;-84
2022/08/14 03:53:55;;;;;;;6.13;2.30;;;21.90;97.50;;;;;;4993788;28;20615;-84
2022/08/14 03:56:22;;;;;;;11.93;2.67;;;21.90;97.70;;;;;;4993846;28;20192;-85
2022/08/14 03:58:49;;;;;;;2.70;2.50;;;21.90;97.80;;;;;;4993554;28;20184;-84
2022/08/14 04:01:20;;;;;;;10.65;3.33;;;21.80;98.20;;;;;;4992392;28;20193;-84
2022/08/14 04:03:46;;;;;;;3.83;2.20;;;21.80;98.20;;;;;;4993369;28;20256;-84
2022/08/14 04:06:12;;;;;;;4.10;2.38;;;21.90;97.90;;;;;;4994871;28;20165;-83
2022/08/14 04:08:39;;;;;;;8.68;2.80;;;21.80;98.10;;;;;;4995013;28;20168;-84
2022/08/14 04:11:07;;;;;;;2.78;2.40;;;21.80;98.10;;;;;;4994636;28;20216;-84
2022/08/14 04:13:35;;;;;;;2.58;2.38;;;21.90;98.00;;;;;;4993176;28;20805;-84
2022/08/14 04:16:22;;;;;;;2.70;2.50;;;21.90;98.00;;;;;;4993299;28;20200;-84
2022/08/14 04:18:54;;;;;;;2.63;2.40;;;21.80;98.00;;;;;;4993389;28;20258;-83
2022/08/14 04:21:23;;;;;;;6.07;2.33;;;21.80;97.80;;;;;;4993270;28;20197;-84
2022/08/14 04:23:49;;;;;;;13.68;2.67;;;21.80;97.50;;;;;;4977726;28;20185;-84
2022/08/14 04:26:18;;;;;;;4.20;2.20;;;21.90;97.20;;;;;;4992959;28;20224;-84
2022/08/14 04:28:44;;;;;;;9.05;2.50;;;21.90;97.30;;;;;;4992911;28;20173;-84
2022/08/14 04:31:11;;;;;;;8.20;2.72;;;21.90;97.20;;;;;;4992675;28;20219;-84
2022/08/14 04:33:37;;;;;;;8.80;2.45;;;21.90;97.00;;;;;;4993003;28;20179;-84
2022/08/14 04:36:03;;;;;;;3.85;2.30;;;21.90;97.00;;;;;;4992761;28;20169;-84
2022/08/14 04:43:34;;;;;;;2.30;2.20;;;21.60;97.40;;;;;;4994367;28;20215;-84
2022/08/14 04:44:17;;;;;;;9.95;2.55;;;21.50;98.20;;;;;;4994113;28;20688;-84
2022/08/14 04:49:28;;;;;;;2.00;1.90;;;21.60;97.60;;;;;;4994107;28;20280;-85
2022/08/14 04:51:54;;;;;;;2.33;2.22;;;21.80;97.20;;;;;;4992563;28;20299;-84
2022/08/14 04:54:20;;;;;;;3.40;2.22;;;21.70;97.30;;;;;;4993941;28;20174;-84
2022/08/14 04:56:45;;;;;;;2.70;2.22;;;21.90;97.20;;;;;;4992656;28;20216;-84
2022/08/14 04:59:11;;;;;;;3.00;2.42;;;21.90;97.30;;;;;;4992692;28;20231;-84
2022/08/14 05:01:43;;;;;;;5.15;2.53;;;22.00;97.30;;;;;;4992294;28;20197;-84
2022/08/14 05:04:11;;;;;;;3.15;2.10;;;22.00;97.00;;;;;;4992541;28;20208;-84
2022/08/14 05:06:37;;;;;;;3.28;2.33;;;21.90;97.30;;;;;;4992491;28;20173;-84
2022/08/14 05:09:03;;;;;;;3.20;2.28;;;21.90;97.50;;;;;;4993589;28;20507;-84
2022/08/14 05:11:32;;;;;;;7.07;2.70;;;21.90;97.70;;;;;;4991770;28;20311;-84
2022/08/14 05:13:58;;;;;;;14.60;2.85;;;21.90;97.90;;;;;;4993534;28;20165;-84
2022/08/14 05:16:28;;;;;;;6.85;2.38;;;21.90;97.80;;;;;;4992170;28;20173;-84
2022/08/14 05:18:54;;;;;;;3.20;2.53;;;22.10;97.50;;;;;;4992472;28;20205;-84
2022/08/14 05:21:20;;;;;;;3.22;2.42;;;22.10;97.20;;;;;;4991825;28;20196;-84
2022/08/14 05:23:46;;;;;;;13.25;2.55;;;21.90;97.70;;;;;;4991898;28;20187;-84
2022/08/14 05:26:13;;;;;;;6.55;2.35;;;21.80;98.10;;;;;;4993382;28;20215;-84
2022/08/14 05:28:44;;;;;;;2.53;2.28;;;21.80;98.40;;;;;;4991990;28;20176;-84
2022/08/14 05:31:13;;;;;;;2.60;2.40;;;21.80;98.20;;;;;;4992038;28;20213;-84
2022/08/14 05:33:39;;;;;;;3.83;2.47;;;21.90;98.20;;;;;;4992032;28;20173;-84
2022/08/14 05:36:07;;;;;;;2.60;2.40;;;21.90;98.30;;;;;;4992073;28;20641;-84
2022/08/14 05:38:35;;;;;;;4.15;2.65;;;21.80;98.60;;;;;;4992333;28;20181;-85
2022/08/14 05:41:03;;;;;;;13.63;2.78;;;21.90;98.40;;;;;;4992068;28;20200;-84
2022/08/14 05:43:29;;;;;;;5.78;2.70;;;21.80;98.60;;;;;;4993553;28;20177;-84
2022/08/14 05:45:57;;;;;;;4.30;2.83;;;21.90;98.60;;;;;;4992508;28;20215;-85
2022/08/14 05:48:23;;;;;;;2.20;2.00;;;22.10;98.60;;;;;;4996073;28;20161;-86
2022/08/14 05:50:50;;;;;;;18.20;2.92;;;22.10;98.40;;;;;;4994596;28;20212;-85
2022/08/14 05:53:16;;;;;;;4.32;1.80;;;22.30;98.00;;;;;;4994697;28;20169;-86
2022/08/14 05:55:42;;;;;;;1.83;1.73;;;22.30;97.70;;;;;;4992206;28;20166;-85
2022/08/14 05:58:08;;;;;;;5.57;2.35;;;22.50;97.10;;;;;;4992500;28;20177;-84
2022/08/14 06:00:36;;;;;;;5.13;2.58;;;22.60;97.10;;;;;;4991908;28;20676;-86
2022/08/14 06:03:05;;;;;;;4.70;2.20;;;22.70;96.80;;;;;;4993518;28;20165;-84
2022/08/14 06:05:31;;;;;;;2.33;2.13;;;22.80;96.70;;;;;;4993228;28;20175;-84
2022/08/14 06:07:57;;;;;;;5.82;1.92;;;22.70;96.80;;;;;;4991993;28;20621;-85
2022/08/14 06:10:23;;;;;;;2.08;1.98;;;22.70;97.00;;;;;;4991972;28;20205;-84
2022/08/14 06:12:49;;;;;;;3.33;2.03;;;22.70;96.60;;;;;;4992090;28;20264;-85
2022/08/14 06:15:15;;;;;;;15.95;2.72;;;22.80;96.90;;;;;;4994737;28;20669;-85
2022/08/14 06:17:48;;;;;;;6.13;2.15;;;22.90;96.70;;;;;;5013405;28;20176;-84
2022/08/14 06:20:15;;;;;;;3.40;1.75;;;23.00;96.70;;;;;;5011785;28;20199;-85
2022/08/14 06:22:42;;;;;;;3.22;2.03;;;23.10;96.60;;;;;;5011846;28;20176;-85
2022/08/14 06:25:10;;;;;;;5.80;2.33;;;23.20;96.10;;;;;;5015576;28;20168;-85
2022/08/14 06:27:42;;;;;;;5.32;2.20;;;23.40;96.00;;;;;;5014797;28;20637;-84
2022/08/14 06:30:11;;;;;;;11.88;2.70;;;23.50;95.50;;;;;;5014847;28;20653;-82
2022/08/14 06:32:36;;;;;;;2.20;2.00;;;23.50;95.70;;;;;;5015258;28;20701;-83
2022/08/14 06:35:07;;;;;;;3.38;2.35;;;23.70;95.10;;;;;;5014283;28;20227;-85
2022/08/14 06:37:48;;;;;;;5.93;2.38;;;23.80;94.80;;;;;;5016255;28;20176;-84
2022/08/14 06:40:17;;;;;;;2.78;2.58;;;23.90;94.70;;;;;;5014699;28;20726;-83
2022/08/14 06:42:43;;;;;;;6.00;2.47;;;24.00;94.00;;;;;;5014322;28;20502;-84
2022/08/14 06:45:09;;;;;;;2.95;2.60;;;24.20;94.00;;;;;;5014251;28;20235;-83
2022/08/14 06:47:40;;;;;;;6.63;2.42;;;24.30;94.00;;;;;;5011410;28;20194;-84
2022/08/14 06:50:12;;;;;;;2.00;1.90;;;24.40;94.10;;;;;;5010413;28;20188;-84
2022/08/14 06:52:39;;;;;;;2.38;2.00;;;24.70;93.70;;;;;;5014222;28;20180;-85
2022/08/14 06:55:07;;;;;;;3.58;2.72;;;24.90;93.60;;;;;;5014268;28;20272;-86
2022/08/14 06:57:50;;;;;;;2.22;2.03;;;25.10;93.40;;;;;;5014623;28;20238;-85
2022/08/14 07:00:22;;;;;;;2.67;2.47;;;25.20;93.20;;;;;;5014789;28;20192;-85
2022/08/14 07:05:45;;;;;;;3.72;2.63;;;25.20;93.00;;;;;;5015985;28;20250;-84
2022/08/14 07:08:15;;;;;;;7.78;2.58;;;25.20;93.50;;;;;;5014669;28;20160;-84
2022/08/14 07:10:42;;;;;;;10.90;3.10;;;25.30;93.10;;;;;;5015010;28;20212;-86
2022/08/14 07:13:09;;;;;;;6.45;3.17;;;25.50;91.30;;;;;;5014281;28;20637;-86
2022/08/14 07:15:34;;;;;;;3.50;3.20;;;25.70;90.60;;;;;;5014438;28;20172;-85
2022/08/14 07:18:01;;;;;;;3.58;3.28;;;25.70;90.20;;;;;;5016113;28;20227;-86
2022/08/14 07:20:27;;;;;;;3.80;3.50;;;25.70;90.70;;;;;;5014793;28;20188;-86
2022/08/14 07:22:57;;;;;;;13.82;3.75;;;25.90;90.20;;;;;;5014852;28;20660;-85
2022/08/14 07:25:23;;;;;;;5.43;2.90;;;26.10;89.30;;;;;;5015049;28;20172;-86
2022/08/14 07:27:49;;;;;;;3.30;2.97;;;26.30;89.60;;;;;;5014699;28;20180;-86
2022/08/14 07:30:15;;;;;;;3.05;2.60;;;26.70;89.60;;;;;;5016439;28;20192;-83
2022/08/14 07:32:41;;;;;;;5.05;2.50;;;27.20;89.40;;;;;;5014664;28;20176;-84
2022/08/14 07:35:07;;;;;;;4.20;2.83;;;27.70;88.60;;;;;;5013664;28;20716;-85
2022/08/14 07:37:32;;;;;;;6.80;2.83;;;27.90;87.30;;;;;;5013480;28;20227;-84
2022/08/14 07:39:58;;;;;;;9.82;2.70;;;28.00;85.90;;;;;;5000729;28;20596;-87
2022/08/14 07:42:24;;;;;;;5.05;3.03;;;27.90;86.00;;;;;;4992839;28;20535;-86
2022/08/14 07:44:50;;;;;;;12.82;2.60;;;28.10;86.20;;;;;;4992789;28;20184;-86
2022/08/14 07:47:15;;;;;;;2.90;2.70;;;28.10;85.70;;;;;;4994382;28;20172;-86
2022/08/14 07:49:43;;;;;;;4.80;2.78;;;28.10;85.40;;;;;;4994413;28;20183;-86
2022/08/14 07:52:09;;;;;;;3.45;2.83;;;28.30;85.70;;;;;;4994181;28;20205;-86
2022/08/14 07:54:34;;;;;;;3.13;2.67;;;28.50;85.80;;;;;;4994263;28;20180;-86
2022/08/14 07:57:00;;;;;;;3.03;2.83;;;28.50;83.90;;;;;;4994757;28;20222;-86
2022/08/14 07:59:27;;;;;;;3.00;2.75;;;28.60;84.30;;;;;;4994163;28;20618;-86
2022/08/14 08:01:53;;;;;;;4.85;2.88;;;28.40;84.40;;;;;;4994031;28;20197;-86
2022/08/14 08:04:23;;;;;;;2.85;2.60;;;28.50;84.20;;;;;;4994532;28;20512;-86
2022/08/14 08:06:49;;;;;;;4.45;2.47;;;28.50;84.50;;;;;;4993945;28;20165;-87
2022/08/14 08:09:19;;;;;;;2.88;2.67;;;28.60;84.80;;;;;;4994138;28;20664;-86
2022/08/14 08:11:45;;;;;;;2.58;2.38;;;28.40;85.20;;;;;;4993845;28;20253;-85
2022/08/14 08:14:11;;;;;;;6.45;2.47;;;28.50;85.20;;;;;;4994227;28;20559;-86
2022/08/14 08:16:37;;;;;;;2.50;2.30;;;28.60;85.70;;;;;;4995259;28;20219;-87
2022/08/14 08:19:05;;;;;;;9.18;2.47;;;28.50;84.90;;;;;;4994234;28;20219;-86
2022/08/14 08:21:30;;;;;;;2.55;2.35;;;28.50;84.60;;;;;;4993731;28;20193;-86
2022/08/14 08:23:56;;;;;;;5.15;2.10;;;28.60;84.30;;;;;;4995307;28;20278;-86
2022/08/14 08:26:28;;;;;;;9.80;2.20;;;28.70;84.70;;;;;;4993696;28;20165;-87
2022/08/14 08:28:56;;;;;;;3.95;1.95;;;28.80;83.90;;;;;;4994850;28;20172;-87
2022/08/14 08:31:22;;;;;;;7.55;2.00;;;28.90;83.50;;;;;;4995006;28;20704;-86
2022/08/14 08:33:51;;;;;;;2.30;2.10;;;28.70;83.30;;;;;;4993880;28;20169;-88
2022/08/14 08:36:17;;;;;;;2.83;2.53;;;28.80;83.60;;;;;;4993526;28;20212;-86
2022/08/14 08:38:44;;;;;;;2.45;2.25;;;29.10;84.20;;;;;;4994727;28;20232;-86
2022/08/14 08:41:11;;;;;;;2.67;2.05;;;29.00;83.10;;;;;;4993365;28;20197;-86
2022/08/14 08:43:39;;;;;;;8.05;2.05;;;29.30;83.60;;;;;;4993202;28;20173;-86
2022/08/14 08:46:19;;;;;;;7.43;1.80;;;29.30;82.90;;;;;;4992754;28;20303;-86
2022/08/14 08:48:54;;;;;;;6.07;1.80;;;29.40;81.40;;;;;;4993106;28;20169;-87
2022/08/14 08:51:23;;;;;;;5.72;2.00;;;29.50;80.70;;;;;;4993300;28;20228;-87
2022/08/14 08:54:15;;;;;;;1.50;1.40;;;29.60;80.60;;;;;;4993449;28;20165;-87
2022/08/14 08:56:44;;;;;;;3.08;1.60;;;29.70;79.30;;;;;;4993271;28;20192;-85
2022/08/14 08:59:25;;;;;;;2.80;1.80;;;29.90;80.50;;;;;;4992818;28;20275;-84
2022/08/14 09:01:58;;;;;;;1.70;1.50;;;29.90;79.40;;;;;;4992969;28;20196;-85
2022/08/14 09:04:29;;;;;;;4.30;1.95;;;30.10;78.60;;;;;;4993713;28;20260;-85
2022/08/14 09:06:55;;;;;;;2.13;1.50;;;30.30;77.70;;;;;;4994774;28;20184;-86
2022/08/14 09:09:23;;;;;;;1.70;1.60;;;30.50;77.20;;;;;;4993675;28;20631;-85
2022/08/14 09:11:52;;;;;;;1.85;1.75;;;30.60;78.20;;;;;;4993562;28;20220;-96
2022/08/14 09:14:18;;;;;;;1.58;1.48;;;30.70;78.30;;;;;;4993216;28;20165;-91
2022/08/14 09:16:44;;;;;;;4.38;1.10;;;30.90;76.40;;;;;;4994626;28;20191;-85
2022/08/14 09:19:10;;;;;;;1.13;1.02;;;30.70;76.70;;;;;;4993981;28;20646;-85
2022/08/14 09:21:38;;;;;;;3.45;1.55;;;30.60;77.00;;;;;;4993706;28;20198;-86
2022/08/14 09:24:04;;;;;;;1.60;1.50;;;30.60;74.60;;;;;;4992909;28;20187;-84
2022/08/14 09:26:30;;;;;;;1.30;1.20;;;30.60;74.00;;;;;;4993538;28;20172;-83
2022/08/14 09:28:56;;;;;;;7.60;1.48;;;30.60;74.70;;;;;;4992741;28;20267;-84
2022/08/14 09:31:22;;;;;;;1.77;1.30;;;30.40;75.30;;;;;;4992383;28;20601;-84
2022/08/14 09:34:16;;;;;;;2.25;1.50;;;30.70;75.20;;;;;;4992413;28;20388;-85
2022/08/14 09:36:48;;;;;;;4.40;1.23;;;30.90;74.30;;;;;;4993633;28;20165;-87
2022/08/14 09:39:28;;;;;;;5.72;1.40;;;30.70;73.60;;;;;;4993312;28;20173;-86
2022/08/14 09:42:30;;;;;;;1.20;1.10;;;30.80;73.40;;;;;;4993571;28;20276;-85
2022/08/14 09:45:12;;;;;;;2.15;1.33;;;30.80;74.20;;;;;;4993472;28;20176;-85
2022/08/14 09:47:52;;;;;;;2.67;1.20;;;30.70;74.50;;;;;;4992913;28;20248;-85
2022/08/14 09:50:20;;;;;;;3.80;1.20;;;30.70;74.70;;;;;;4992880;28;20251;-85
2022/08/14 09:53:06;;;;;;;1.92;1.20;;;30.80;75.30;;;;;;4992357;28;20749;-84
2022/08/14 09:55:35;;;;;;;1.30;1.20;;;30.80;73.20;;;;;;4992004;28;20295;-84
2022/08/14 09:58:16;;;;;;;3.70;1.20;;;30.60;73.00;;;;;;4992363;28;20222;-83
2022/08/14 10:00:49;;;;;;;1.40;1.30;;;30.60;73.90;;;;;;4997397;28;20193;-85
2022/08/14 10:03:32;;;;;;;7.25;1.60;;;30.70;74.40;;;;;;4996218;28;20529;-83
2022/08/14 10:06:18;;;;;;;10.07;8.05;;;30.80;73.50;;;;;;4997482;28;20533;-83
2022/08/14 10:08:49;;;;;;;1.95;1.75;;;30.80;74.40;;;;;;4997087;28;20227;-84
2022/08/14 10:11:28;;;;;;;14.63;6.45;;;30.90;73.20;;;;;;4995976;28;20230;-83
2022/08/14 10:13:57;;;;;;;1.60;1.50;;;31.20;73.60;;;;;;4996096;28;20216;-82
2022/08/14 10:16:27;;;;;;;1.80;1.70;;;31.20;74.20;;;;;;4997120;28;20176;-83
2022/08/14 10:19:04;;;;;;;6.18;2.13;;;31.20;74.30;;;;;;4995850;28;20688;-82
2022/08/14 10:21:29;;;;;;;1.77;1.40;;;31.00;74.30;;;;;;4997168;28;20195;-83
2022/08/14 10:23:55;;;;;;;5.63;1.40;;;31.00;72.60;;;;;;4995506;28;20185;-84
2022/08/14 10:26:21;;;;;;;2.60;1.63;;;31.20;73.60;;;;;;4997619;28;20172;-82
2022/08/14 10:28:49;;;;;;;4.00;1.42;;;31.40;74.10;;;;;;4996347;28;20169;-83
2022/08/14 10:31:20;;;;;;;1.40;1.30;;;31.60;72.80;;;;;;4997286;28;20255;-83
2022/08/14 10:34:07;;;;;;;11.98;1.65;;;31.80;73.30;;;;;;4997317;28;20243;-83
2022/08/14 10:36:40;;;;;;;3.40;3.10;;;31.80;73.50;;;;;;5010757;28;20184;-84
2022/08/14 10:39:19;;;;;;;2.72;2.25;;;32.00;71.60;;;;;;5017964;28;20223;-83
2022/08/14 10:41:46;;;;;;;5.13;1.88;;;32.10;71.20;;;;;;5018303;28;20190;-83
2022/08/14 10:44:16;;;;;;;2.63;2.42;;;32.00;71.60;;;;;;5018676;28;20180;-83
2022/08/14 10:46:45;;;;;;;4.95;1.35;;;32.20;70.90;;;;;;5019314;28;20173;-83
2022/08/14 10:49:22;;;;;;;2.67;2.45;;;32.20;70.50;;;;;;5018289;28;20161;-84
2022/08/14 10:52:00;;;;;;;2.03;1.38;;;32.30;69.70;;;;;;5018011;28;20239;-87
2022/08/14 10:54:32;;;;;;;2.55;2.35;;;32.30;70.00;;;;;;5018493;28;20172;-83
2022/08/14 10:57:23;;;;;;;8.23;7.63;;;32.50;70.10;;;;;;5017799;28;20175;-83
2022/08/14 10:59:54;;;;;;;1.58;1.45;;;32.70;69.30;;;;;;4995382;28;20661;-83
2022/08/14 11:02:40;;;;;;;4.88;3.38;;;32.70;69.50;;;;;;4996995;28;20188;-82
2022/08/14 11:05:06;;;;;;;10.10;1.85;;;32.80;69.90;;;;;;4995453;28;20488;-82
2022/08/14 11:07:35;;;;;;;2.30;2.10;;;32.70;69.00;;;;;;4995261;28;20176;-82
2022/08/14 11:10:09;;;;;;;1.55;1.33;;;32.80;68.70;;;;;;4994508;28;20681;-83
2022/08/14 11:12:46;;;;;;;1.42;1.33;;;32.70;68.10;;;;;;4994974;28;20247;-83
2022/08/14 11:15:22;;;;;;;2.50;1.35;;;33.00;68.10;;;;;;4994792;28;20673;-83
2022/08/14 11:17:50;;;;;;;1.05;1.05;;;32.90;66.70;;;;;;4994767;28;20184;-83
2022/08/14 11:20:18;;;;;;;10.02;1.40;;;32.60;66.60;;;;;;4996024;28;20185;-84
2022/08/14 11:22:44;;;;;;;2.50;1.20;;;32.50;67.10;;;;;;4994877;28;20192;-83
2022/08/14 11:25:14;;;;;;;2.10;1.23;;;32.40;67.20;;;;;;4995899;28;20672;-84
2022/08/14 11:27:43;;;;;;;7.03;1.13;;;32.40;67.40;;;;;;4995543;28;20573;-84
2022/08/14 11:30:13;;;;;;;3.50;1.77;;;32.30;67.50;;;;;;4994610;28;20185;-84
2022/08/14 11:32:49;;;;;;;1.70;1.60;;;32.10;67.60;;;;;;4995100;28;20677;-83
2022/08/14 11:35:19;;;;;;;14.65;1.40;;;31.90;68.50;;;;;;4996381;28;20175;-83
2022/08/14 11:37:53;;;;;;;6.47;1.55;;;32.00;68.20;;;;;;4996112;28;20183;-84
2022/08/14 11:40:20;;;;;;;5.70;1.40;;;32.00;68.20;;;;;;4995970;28;20197;-84
2022/08/14 11:42:47;;;;;;;3.30;1.45;;;31.90;68.00;;;;;;5005030;28;20196;-84
2022/08/14 11:45:14;;;;;;;6.43;1.35;;;31.90;68.10;;;;;;5018127;28;20157;-86
2022/08/14 11:47:39;;;;;;;1.92;1.60;;;31.90;68.10;;;;;;5019854;28;20241;-83
2022/08/14 11:50:17;;;;;;;6.53;1.60;;;31.90;67.50;;;;;;5019720;28;20227;-84
2022/08/14 11:52:43;;;;;;;5.38;1.20;;;32.00;67.00;;;;;;5019902;28;20177;-82
2022/08/14 11:55:12;;;;;;;1.75;1.27;;;32.10;67.00;;;;;;5015104;28;20195;-82
2022/08/14 11:57:42;;;;;;;6.70;1.23;;;32.10;67.40;;;;;;4996982;28;20255;-84
2022/08/14 12:00:18;;;;;;;2.00;1.42;;;32.10;66.90;;;;;;4994644;28;20192;-81
2022/08/14 12:02:53;;;;;;;3.55;1.08;;;32.10;67.40;;;;;;4994457;28;20641;-83
2022/08/14 12:05:32;;;;;;;1.40;1.30;;;32.20;69.10;;;;;;4994131;28;20497;-84
2022/08/14 12:07:59;;;;;;;4.07;2.00;;;32.40;69.00;;;;;;4994260;28;20198;-83
2022/08/14 12:10:24;;;;;;;9.88;1.77;;;32.50;68.70;;;;;;4993764;28;20262;-83
2022/08/14 12:12:53;;;;;;;1.50;1.40;;;32.50;67.60;;;;;;4994899;28;20661;-84
2022/08/14 12:15:32;;;;;;;2.97;1.30;;;32.40;68.30;;;;;;4993704;28;20180;-84
2022/08/14 12:18:00;;;;;;;1.52;1.40;;;32.20;67.60;;;;;;4994003;28;20176;-84
2022/08/14 12:20:36;;;;;;;1.85;1.27;;;32.30;68.60;;;;;;4994516;28;20192;-83
2022/08/14 12:23:06;;;;;;;2.15;1.92;;;32.40;67.80;;;;;;4994348;28;20271;-81
2022/08/14 12:25:34;;;;;;;2.53;1.70;;;32.20;67.80;;;;;;4993338;28;20191;-81
2022/08/14 12:28:10;;;;;;;11.02;1.42;;;32.20;68.10;;;;;;4993480;28;20653;-82
2022/08/14 12:30:41;;;;;;;6.13;1.45;;;32.40;66.60;;;;;;4993394;28;20192;-80
2022/08/14 12:33:26;;;;;;;1.23;1.20;;;32.30;66.40;;;;;;4994957;28;20223;-81
2022/08/14 12:35:54;;;;;;;1.13;1.02;;;32.30;67.00;;;;;;4994159;28;20164;-81
2022/08/14 12:38:40;;;;;;;2.50;1.30;;;32.40;66.40;;;;;;4994124;28;20178;-80
2022/08/14 12:41:12;;;;;;;3.40;1.63;;;32.50;66.30;;;;;;4994456;28;20181;-80
2022/08/14 12:43:52;;;;;;;2.55;1.58;;;32.70;66.30;;;;;;4993661;28;20161;-81
2022/08/14 12:46:32;;;;;;;1.88;1.02;;;32.60;65.60;;;;;;4993904;28;20172;-81
2022/08/14 12:49:09;;;;;;;1.20;1.10;;;32.60;65.50;;;;;;4994484;28;20195;-81
2022/08/14 12:51:35;;;;;;;13.32;1.38;;;32.80;64.50;;;;;;5001576;28;20207;-83
2022/08/14 12:54:16;;;;;;;1.15;1.05;;;32.80;64.80;;;;;;5011988;28;20258;-81
2022/08/14 12:56:43;;;;;;;2.60;1.25;;;32.90;64.50;;;;;;5010113;28;20183;-85
2022/08/14 12:59:09;;;;;;;4.85;1.10;;;32.80;64.50;;;;;;5012720;28;20191;-82
2022/08/14 13:01:35;;;;;;;1.13;1.02;;;32.80;63.60;;;;;;5015673;28;20218;-85
2022/08/14 13:04:13;;;;;;;3.03;1.30;;;32.60;63.40;;;;;;5032833;28;20163;-82
2022/08/14 13:06:40;;;;;;;6.60;1.23;;;32.70;64.00;;;;;;5032502;28;20697;-82
2022/08/14 13:09:07;;;;;;;2.03;1.30;;;32.60;63.00;;;;;;5032207;28;20170;-84